Terminal Aerodrome Forecast
Issued by NWS Melbourne, FL

Home | Current Version | Previous Version | Text Only | Print | Product List | Glossary On
Versions: 1 2 3 4 5 6 7 8 9 10 11 12 13 14 15 16 17 18 19 20 21 22 23
000
FTUS42 KMLB 251733
TAFMCO
TAF
KMCO 251733Z 2518/2618 22014KT P6SM VCTS SCT035CB BKN050 BKN300
     FM260000 23008KT P6SM SCT060 OVC300
     FM260800 23008KT P6SM SCT005 BKN020 OVC100
     FM261500 24013G21KT P6SM VCSH BKN035 OVC100=

USA.gov is the U.S. government's official web portal to all federal, state and local government web resources and services.